Sample Charts Sidebar
> Live data! Your data is on the web site for you to access within minutes
 
> Detailed data is easily downloaded as data file, which can be opened with Excel
 
> Charts can be customised if necessary
  Chart 1
 

(A maximum of 50 rows are displayed here. Use "Export Data" to see all rows in the date range.)
Date Collected Temperature
(Celcius)
Wind-chill
(Celcius)
Wind Speed
(km/hr)
Gust
(km/hr)
Wind Direction
(degrees)
2020-01-27 22:00 18.3 17.3 4 12 9
2020-01-27 21:00 18.8 17.9 4 11 10
2020-01-27 20:00 18.7 16.9 5 12 2
2020-01-27 19:00 18.6 17.5 4 12 355
2020-01-27 18:00 18.6 17.9 4 11 20
2020-01-27 17:00 18.7 18.0 3 10 4
2020-01-27 16:00 18.8 17.8 4 13 22
2020-01-27 15:00 18.9 17.6 5 11 23
2020-01-27 14:00 18.9 17.9 4 11 34
2020-01-27 13:00 19.3 18.2 4 12 359
2020-01-27 12:00 19.4 17.4 6 15 28
2020-01-27 11:00 19.3 17.9 5 11 10
2020-01-27 10:00 18.9 17.7 4 10 29
2020-01-27 09:00 19.5 17.5 6 17 16
2020-01-27 08:00 19.0 17.6 5 13 38
2020-01-27 07:00 20.0 17.9 6 18 31
2020-01-27 06:00 20.2 18.0 6 18 19
2020-01-27 05:00 20.0 17.9 6 16 27
2020-01-27 04:00 20.2 17.8 7 15 24
2020-01-27 03:00 20.0 17.7 7 16 23
2020-01-27 02:00 19.7 17.4 6 22 26
2020-01-27 01:00 18.9 16.8 6 13 42
2020-01-27 00:00 17.7 16.8 4 10 42
2020-01-26 23:00 16.6 16.2 3 7 54
2020-01-26 22:00 16.4 16.1 3 6 60
2020-01-26 21:00 16.9 16.4 4 7 58
2020-01-26 20:00 17.3 17.2 3 6 52
2020-01-26 19:00 17.7 17.7 2 4 69
2020-01-26 18:00 18.3 18.3 2 5 50
2020-01-26 17:00 18.9 18.9 2 5 25
2020-01-26 16:00 19.4 19.4 2 5 5
2020-01-26 15:00 19.8 19.7 2 6 21
2020-01-26 14:00 19.6 19.1 3 7 36
2020-01-26 13:00 17.9 16.6 4 9 45
2020-01-26 12:00 16.1 14.4 5 10 46
2020-01-26 11:00 14.0 12.7 4 10 46
2020-01-26 10:00 12.5 10.8 5 9 51
2020-01-26 09:00 10.5 6.7 6 11 42
2020-01-26 08:00 9.0 5.7 6 13 47
2020-01-26 07:00 8.6 7.0 4 9 54
2020-01-26 06:00 8.5 7.2 4 8 57
2020-01-26 05:00 8.8 7.7 4 8 51
2020-01-26 04:00 9.4 7.5 4 10 42
2020-01-26 03:00 9.2 8.8 3 6 41
2020-01-26 02:00 9.7 9.7 2 5 47
2020-01-26 01:00 10.9 10.9 2 5 56
2020-01-26 00:00 11.8 11.8 2 5 56
2020-01-25 23:00 12.1 12.1 2 5 68
2020-01-25 22:00 12.2 12.1 2 5 69
2020-01-25 21:00 11.8 11.9 2 5 51